Time;durP1;ratioP1;P1;durP2;ratioP2;P2;SDS_P1;SDS_P2;PMS_P1;PMS_P2;Temp;Humidity;BMP_temperature;BMP_pressure;BME280_temperature;BME280_humidity;BME280_pressure;Samples;Min_cycle;Max_cycle;Signal;HPM_P1;HPM_P2
2022/07/18 00:00:39;;;;;;;6.00;4.32;;;;;;;;;;4245480;33;20196;-71
2022/07/18 00:03:05;;;;;;;6.28;4.22;;;;;;;;;;4245706;33;20228;-70
2022/07/18 00:33:59;;;;;;;10.40;4.37;;;;;;;;;;4466834;27;20101;-65
2022/07/18 00:36:25;;;;;;;8.68;4.32;;;;;;;;;;4261640;33;20531;-66
2022/07/18 00:38:51;;;;;;;5.30;4.10;;;;;;;;;;4261727;33;20124;-65
2022/07/18 00:41:17;;;;;;;6.85;3.92;;;;;;;;;;4261786;33;20207;-66
2022/07/18 00:43:43;;;;;;;4.53;3.97;;;;;;;;;;4261344;33;20230;-66
2022/07/18 00:46:11;;;;;;;5.05;4.22;;;;;;;;;;4261479;33;20136;-66
2022/07/18 00:48:40;;;;;;;7.57;5.10;;;;;;;;;;4261446;33;20622;-66
2022/07/18 00:51:07;;;;;;;8.10;4.43;;;;;;;;;;4261363;33;20243;-66
2022/07/18 00:53:33;;;;;;;7.15;4.37;;;;;;;;;;4261568;33;20101;-66
2022/07/18 00:56:01;;;;;;;6.93;4.35;;;;;;;;;;4261645;33;20124;-66
2022/07/18 00:58:27;;;;;;;4.20;3.80;;;;;;;;;;4261296;33;20523;-66
2022/07/18 01:03:38;;;;;;;6.93;4.10;;;;;;;;;;4250259;33;20119;-67
2022/07/18 01:06:04;;;;;;;7.82;4.43;;;;;;;;;;4261267;33;20207;-66
2022/07/18 01:08:30;;;;;;;9.07;4.57;;;;;;;;;;4261339;33;20100;-66
2022/07/18 01:10:56;;;;;;;8.00;4.47;;;;;;;;;;4261208;33;20100;-66
2022/07/18 01:13:22;;;;;;;8.05;4.68;;;;;;;;;;4261035;33;20112;-65
2022/07/18 01:15:48;;;;;;;6.97;4.07;;;;;;;;;;4261087;33;20144;-66
2022/07/18 01:18:14;;;;;;;5.05;3.90;;;;;;;;;;4261018;33;20539;-66
2022/07/18 01:20:40;;;;;;;8.82;5.00;;;;;;;;;;4261065;33;20095;-66
2022/07/18 01:23:06;;;;;;;5.37;4.75;;;;;;;;;;4261211;33;20105;-65
2022/07/18 01:25:32;;;;;;;6.78;4.28;;;;;;;;;;4261427;33;20121;-65
2022/07/18 01:27:58;;;;;;;7.40;4.47;;;;;;;;;;4261191;33;20116;-65
2022/07/18 01:30:24;;;;;;;9.00;5.55;;;;;;;;;;4247754;33;20547;-66
2022/07/18 01:33:01;;;;;;;4.68;4.10;;;;;;;;;;4260910;33;20120;-65
2022/07/18 01:35:28;;;;;;;5.50;4.47;;;;;;;;;;4261303;33;20100;-65
2022/07/18 01:37:57;;;;;;;12.20;4.45;;;;;;;;;;4260964;33;20128;-65
2022/07/18 01:40:24;;;;;;;9.82;3.90;;;;;;;;;;4247996;33;20455;-66
2022/07/18 01:42:50;;;;;;;6.95;4.07;;;;;;;;;;4261015;33;20191;-66
2022/07/18 01:45:16;;;;;;;5.72;4.65;;;;;;;;;;4247485;33;20147;-67
2022/07/18 01:47:43;;;;;;;7.43;4.30;;;;;;;;;;4260897;33;20116;-67
2022/07/18 01:50:11;;;;;;;10.52;4.35;;;;;;;;;;4260839;33;20502;-67
2022/07/18 01:52:37;;;;;;;5.47;4.25;;;;;;;;;;4260901;33;20129;-66
2022/07/18 01:55:05;;;;;;;5.97;4.00;;;;;;;;;;4260830;33;20543;-65
2022/07/18 01:57:30;;;;;;;9.13;4.50;;;;;;;;;;4260821;33;20123;-65
2022/07/18 01:59:56;;;;;;;10.07;4.87;;;;;;;;;;4260865;33;20112;-65
2022/07/18 02:02:22;;;;;;;9.77;4.65;;;;;;;;;;4260713;33;20528;-65
2022/07/18 02:05:00;;;;;;;10.63;4.47;;;;;;;;;;4260740;33;20109;-65
2022/07/18 02:07:28;;;;;;;11.32;5.05;;;;;;;;;;4260764;33;20136;-65
2022/07/18 02:09:54;;;;;;;7.93;4.43;;;;;;;;;;4260674;33;20266;-67
2022/07/18 02:12:20;;;;;;;5.30;3.78;;;;;;;;;;4260875;33;20117;-65
2022/07/18 02:14:46;;;;;;;6.18;4.45;;;;;;;;;;4260666;33;20484;-65
2022/07/18 02:17:12;;;;;;;6.28;4.37;;;;;;;;;;4260858;33;20182;-65
2022/07/18 02:19:38;;;;;;;10.73;4.55;;;;;;;;;;4260756;33;20108;-66
2022/07/18 02:22:05;;;;;;;5.18;4.00;;;;;;;;;;4260486;33;20132;-65
2022/07/18 02:24:31;;;;;;;8.20;4.07;;;;;;;;;;4260139;33;20518;-65
2022/07/18 02:26:57;;;;;;;7.82;4.35;;;;;;;;;;4260751;33;20132;-65
2022/07/18 02:29:23;;;;;;;12.15;4.22;;;;;;;;;;4260537;33;20444;-65
2022/07/18 02:31:49;;;;;;;8.00;4.03;;;;;;;;;;4247579;33;20449;-66
2022/07/18 02:34:15;;;;;;;6.97;4.60;;;;;;;;;;4260365;33;20108;-65
2022/07/18 02:36:42;;;;;;;6.15;3.75;;;;;;;;;;4247333;33;20202;-66
2022/07/18 02:39:09;;;;;;;7.65;3.50;;;;;;;;;;4260632;33;20112;-65
2022/07/18 02:41:35;;;;;;;5.28;3.50;;;;;;;;;;4260730;33;20602;-66
2022/07/18 02:44:01;;;;;;;13.05;3.85;;;;;;;;;;4260442;33;20125;-66
2022/07/18 02:46:27;;;;;;;7.60;3.90;;;;;;;;;;4260600;33;20116;-66
2022/07/18 02:48:53;;;;;;;3.50;3.10;;;;;;;;;;4247531;33;20531;-66
2022/07/18 02:51:19;;;;;;;3.78;3.35;;;;;;;;;;4260277;33;20127;-66
2022/07/18 02:53:45;;;;;;;4.57;3.78;;;;;;;;;;4260188;33;20219;-67
2022/07/18 02:56:11;;;;;;;5.22;4.22;;;;;;;;;;4260480;33;20107;-66
2022/07/18 02:58:37;;;;;;;10.43;4.10;;;;;;;;;;4260150;33;20198;-65
2022/07/18 03:01:03;;;;;;;8.57;4.10;;;;;;;;;;4260022;33;20191;-65
2022/07/18 03:03:29;;;;;;;9.50;4.03;;;;;;;;;;4260127;33;20531;-65
2022/07/18 03:05:55;;;;;;;4.30;3.85;;;;;;;;;;4260110;33;20539;-66
2022/07/18 03:08:21;;;;;;;8.13;3.70;;;;;;;;;;4260127;33;20130;-65
2022/07/18 03:10:47;;;;;;;7.12;3.65;;;;;;;;;;4260317;33;20516;-65
2022/07/18 03:13:13;;;;;;;5.90;4.18;;;;;;;;;;4259954;33;20112;-65
2022/07/18 03:15:40;;;;;;;7.53;4.28;;;;;;;;;;4259994;33;20128;-65
2022/07/18 03:18:06;;;;;;;8.88;4.05;;;;;;;;;;4260015;33;20452;-65
2022/07/18 03:20:33;;;;;;;9.48;4.82;;;;;;;;;;4259921;33;20100;-66
2022/07/18 03:22:59;;;;;;;7.65;4.50;;;;;;;;;;4259819;33;20523;-65
2022/07/18 03:25:25;;;;;;;7.35;3.80;;;;;;;;;;4247015;33;20112;-65
2022/07/18 03:27:51;;;;;;;9.45;4.03;;;;;;;;;;4259794;33;20492;-65
2022/07/18 03:30:17;;;;;;;5.65;4.10;;;;;;;;;;4246624;33;20112;-67
2022/07/18 03:32:43;;;;;;;5.07;3.97;;;;;;;;;;4259709;33;20103;-67
2022/07/18 03:35:09;;;;;;;9.35;4.40;;;;;;;;;;4259816;33;20096;-67
2022/07/18 03:37:35;;;;;;;7.32;5.12;;;;;;;;;;4260573;33;20100;-67
2022/07/18 03:40:01;;;;;;;11.07;5.07;;;;;;;;;;4262333;33;20191;-67
2022/07/18 03:42:27;;;;;;;8.20;4.05;;;;;;;;;;4262069;33;20118;-68
2022/07/18 03:44:53;;;;;;;7.10;4.07;;;;;;;;;;4261956;33;20143;-69
2022/07/18 03:47:19;;;;;;;12.68;3.90;;;;;;;;;;4249013;33;20123;-67
2022/07/18 03:49:45;;;;;;;9.75;4.43;;;;;;;;;;4248889;33;20457;-69
2022/07/18 03:52:11;;;;;;;13.10;4.20;;;;;;;;;;4248594;33;20123;-66
2022/07/18 03:54:37;;;;;;;6.57;4.55;;;;;;;;;;4261860;33;20104;-66
2022/07/18 03:57:03;;;;;;;11.12;5.70;;;;;;;;;;4261754;33;20092;-66
2022/07/18 03:59:29;;;;;;;11.48;6.12;;;;;;;;;;4248745;33;20123;-66
2022/07/18 04:01:55;;;;;;;8.13;4.82;;;;;;;;;;4261775;33;20093;-66
2022/07/18 04:04:21;;;;;;;9.75;5.28;;;;;;;;;;4261789;33;20100;-66
2022/07/18 04:06:47;;;;;;;9.50;5.03;;;;;;;;;;4248791;33;20108;-66
2022/07/18 04:09:13;;;;;;;12.15;4.87;;;;;;;;;;4261737;33;20097;-66
2022/07/18 04:11:39;;;;;;;9.05;4.37;;;;;;;;;;4261771;33;20103;-65
2022/07/18 04:14:05;;;;;;;5.53;4.22;;;;;;;;;;4262012;33;20199;-65
2022/07/18 04:16:31;;;;;;;6.80;3.85;;;;;;;;;;4261771;33;20534;-66
2022/07/18 04:18:57;;;;;;;5.32;3.70;;;;;;;;;;4248878;33;20206;-65
2022/07/18 04:21:23;;;;;;;22.52;4.20;;;;;;;;;;4261611;33;20194;-63
2022/07/18 04:23:49;;;;;;;13.10;4.05;;;;;;;;;;4261624;33;20124;-65
2022/07/18 04:26:15;;;;;;;4.93;3.55;;;;;;;;;;4261600;33;20535;-64
2022/07/18 04:28:41;;;;;;;10.35;3.67;;;;;;;;;;4262085;33;20216;-65
2022/07/18 04:31:07;;;;;;;7.03;3.33;;;;;;;;;;4261620;33;20108;-65
2022/07/18 04:33:33;;;;;;;7.53;5.43;;;;;;;;;;4248441;33;20524;-65
2022/07/18 04:35:59;;;;;;;13.20;3.87;;;;;;;;;;4261546;33;20092;-65
2022/07/18 04:38:25;;;;;;;5.60;4.30;;;;;;;;;;4248267;33;20124;-65
2022/07/18 04:40:51;;;;;;;5.03;4.10;;;;;;;;;;4261522;33;20444;-67
2022/07/18 04:43:17;;;;;;;6.53;4.32;;;;;;;;;;4248647;33;20521;-65
2022/07/18 04:45:43;;;;;;;7.78;4.12;;;;;;;;;;4261528;33;20107;-68
2022/07/18 04:48:09;;;;;;;16.45;4.10;;;;;;;;;;4261004;33;20108;-69
2022/07/18 04:50:35;;;;;;;11.93;4.25;;;;;;;;;;4261763;33;20139;-67
2022/07/18 04:53:02;;;;;;;4.72;4.03;;;;;;;;;;4261273;33;20491;-67
2022/07/18 04:55:28;;;;;;;5.87;4.05;;;;;;;;;;4261374;33;20204;-68
2022/07/18 04:57:54;;;;;;;12.50;6.55;;;;;;;;;;4248477;33;20105;-68
2022/07/18 05:00:22;;;;;;;18.45;7.20;;;;;;;;;;4261297;33;20116;-67
2022/07/18 05:02:50;;;;;;;18.20;9.82;;;;;;;;;;4261332;33;20104;-68
2022/07/18 05:05:17;;;;;;;22.05;11.38;;;;;;;;;;4261397;33;20120;-68
2022/07/18 05:07:44;;;;;;;30.83;16.85;;;;;;;;;;4261305;33;20113;-68
2022/07/18 05:10:12;;;;;;;28.58;16.05;;;;;;;;;;4261414;33;20547;-69
2022/07/18 05:12:40;;;;;;;30.98;16.65;;;;;;;;;;4248078;33;20610;-68
2022/07/18 05:15:08;;;;;;;33.13;17.05;;;;;;;;;;4248089;33;20103;-67
2022/07/18 05:17:35;;;;;;;31.48;15.45;;;;;;;;;;4261436;33;20114;-67
2022/07/18 05:20:00;;;;;;;38.28;19.52;;;;;;;;;;4261157;33;20112;-67
2022/07/18 05:22:26;;;;;;;41.65;19.20;;;;;;;;;;4261013;33;20099;-67
2022/07/18 05:24:52;;;;;;;47.80;20.77;;;;;;;;;;4261185;33;20117;-67
2022/07/18 05:27:18;;;;;;;38.42;18.62;;;;;;;;;;4248061;33;20108;-68
2022/07/18 05:29:44;;;;;;;34.72;16.45;;;;;;;;;;4261111;33;20117;-68
2022/07/18 05:32:11;;;;;;;28.95;16.67;;;;;;;;;;4247837;33;20107;-67
2022/07/18 05:34:37;;;;;;;25.17;11.50;;;;;;;;;;4261050;33;20099;-68
2022/07/18 05:37:03;;;;;;;20.12;10.52;;;;;;;;;;4236058;33;20096;-67
2022/07/18 05:39:29;;;;;;;20.35;10.18;;;;;;;;;;4260914;33;20155;-67
2022/07/18 05:41:55;;;;;;;20.42;10.25;;;;;;;;;;4261103;33;20108;-68
2022/07/18 05:44:21;;;;;;;16.73;10.52;;;;;;;;;;4260851;33;20100;-68
2022/07/18 05:46:48;;;;;;;22.50;10.55;;;;;;;;;;4247665;33;20614;-67
2022/07/18 05:49:15;;;;;;;11.48;7.32;;;;;;;;;;4260934;33;20100;-69
2022/07/18 05:51:41;;;;;;;19.10;9.63;;;;;;;;;;4260805;33;20119;-71
2022/07/18 05:54:08;;;;;;;17.05;8.48;;;;;;;;;;4247908;33;20096;-73
2022/07/18 05:56:34;;;;;;;21.87;8.38;;;;;;;;;;4260822;33;20108;-75
2022/07/18 05:59:00;;;;;;;17.62;9.10;;;;;;;;;;4260505;33;20125;-73
2022/07/18 06:01:26;;;;;;;18.58;8.57;;;;;;;;;;4260266;33;20108;-74
2022/07/18 06:03:52;;;;;;;17.77;7.43;;;;;;;;;;4259444;33;20116;-71
2022/07/18 06:06:20;;;;;;;19.70;7.43;;;;;;;;;;4259177;33;20133;-72
2022/07/18 06:08:46;;;;;;;8.55;4.97;;;;;;;;;;4260905;33;20125;-72
2022/07/18 06:11:12;;;;;;;10.90;6.68;;;;;;;;;;4260784;33;20115;-72
2022/07/18 06:13:40;;;;;;;11.80;5.87;;;;;;;;;;4260714;33;20119;-72
2022/07/18 06:16:06;;;;;;;7.03;5.37;;;;;;;;;;4247657;33;20101;-72
2022/07/18 06:18:34;;;;;;;9.88;5.25;;;;;;;;;;4247451;33;20111;-72
2022/07/18 06:21:02;;;;;;;6.37;5.07;;;;;;;;;;4247531;33;20436;-72
2022/07/18 06:23:28;;;;;;;8.27;5.20;;;;;;;;;;4247608;33;20166;-71
2022/07/18 06:25:55;;;;;;;9.45;5.28;;;;;;;;;;4247641;33;20093;-70
2022/07/18 06:28:21;;;;;;;8.95;5.10;;;;;;;;;;4260664;33;20228;-71
2022/07/18 06:30:47;;;;;;;11.18;6.60;;;;;;;;;;4260513;33;20114;-71
2022/07/18 06:33:14;;;;;;;15.32;7.35;;;;;;;;;;4260756;33;20132;-71
2022/07/18 06:35:40;;;;;;;16.95;7.57;;;;;;;;;;4260576;33;20214;-70
2022/07/18 06:38:07;;;;;;;14.20;6.75;;;;;;;;;;4235455;33;20198;-70
2022/07/18 06:40:33;;;;;;;18.30;7.50;;;;;;;;;;4260385;33;20112;-70
2022/07/18 06:42:59;;;;;;;10.90;6.22;;;;;;;;;;4260673;33;20124;-70
2022/07/18 06:45:25;;;;;;;13.02;6.60;;;;;;;;;;4260455;33;20105;-70
2022/07/18 06:47:51;;;;;;;20.80;9.13;;;;;;;;;;4260668;33;20120;-70
2022/07/18 06:50:18;;;;;;;26.23;11.38;;;;;;;;;;4260370;33;20123;-70
2022/07/18 06:52:45;;;;;;;23.20;11.82;;;;;;;;;;4260240;33;20128;-71
2022/07/18 06:55:12;;;;;;;24.42;11.77;;;;;;;;;;4260273;33;20508;-70
2022/07/18 06:57:39;;;;;;;24.45;10.82;;;;;;;;;;4259897;33;20104;-76
2022/07/18 07:00:06;;;;;;;12.18;7.37;;;;;;;;;;4247307;33;20191;-75
2022/07/18 07:02:32;;;;;;;16.87;9.13;;;;;;;;;;4260178;33;20550;-70
2022/07/18 07:04:58;;;;;;;28.40;10.88;;;;;;;;;;4260475;33;20116;-73
2022/07/18 07:07:24;;;;;;;18.98;8.25;;;;;;;;;;4260065;33;20112;-75
2022/07/18 07:09:51;;;;;;;21.27;7.35;;;;;;;;;;4260381;33;20117;-75
2022/07/18 07:12:17;;;;;;;10.27;6.20;;;;;;;;;;4261736;33;20111;-74
2022/07/18 07:14:42;;;;;;;13.65;6.30;;;;;;;;;;4262530;33;20109;-74
2022/07/18 07:17:09;;;;;;;10.55;5.93;;;;;;;;;;4249063;33;20109;-71
2022/07/18 07:19:35;;;;;;;20.58;9.02;;;;;;;;;;4225507;33;20543;-74
2022/07/18 07:22:01;;;;;;;19.05;9.07;;;;;;;;;;4262133;33;20135;-77
2022/07/18 07:24:27;;;;;;;16.70;7.55;;;;;;;;;;4261959;33;20089;-73
2022/07/18 07:26:53;;;;;;;19.30;7.53;;;;;;;;;;4262190;33;20613;-68
2022/07/18 07:29:19;;;;;;;12.30;7.07;;;;;;;;;;4262085;33;20523;-68
2022/07/18 07:31:45;;;;;;;11.30;6.97;;;;;;;;;;4262084;33;20183;-69
2022/07/18 07:34:11;;;;;;;9.82;6.25;;;;;;;;;;4262082;33;20099;-71
2022/07/18 07:36:37;;;;;;;13.55;7.00;;;;;;;;;;4262120;33;20512;-69
2022/07/18 07:39:03;;;;;;;11.23;7.15;;;;;;;;;;4249263;33;20122;-69
2022/07/18 07:41:29;;;;;;;20.10;7.55;;;;;;;;;;4262298;33;20115;-68
2022/07/18 07:43:55;;;;;;;18.30;8.38;;;;;;;;;;4262060;33;20120;-68
2022/07/18 07:46:21;;;;;;;12.00;6.00;;;;;;;;;;4262009;33;20201;-69
2022/07/18 07:48:47;;;;;;;13.40;6.68;;;;;;;;;;4262236;33;20203;-67
2022/07/18 07:51:14;;;;;;;13.05;7.47;;;;;;;;;;4262039;33;20532;-67
2022/07/18 07:53:40;;;;;;;19.40;7.65;;;;;;;;;;4261984;33;20239;-71
2022/07/18 07:56:06;;;;;;;14.35;8.07;;;;;;;;;;4258004;33;20100;-68
2022/07/18 07:58:32;;;;;;;16.12;8.10;;;;;;;;;;4247897;33;20116;-69
2022/07/18 08:00:58;;;;;;;20.30;9.05;;;;;;;;;;4249537;33;20663;-69
2022/07/18 08:03:24;;;;;;;17.55;9.50;;;;;;;;;;4255082;33;20125;-66
2022/07/18 08:05:50;;;;;;;22.55;9.05;;;;;;;;;;4231569;33;20116;-68
2022/07/18 08:08:17;;;;;;;21.00;9.43;;;;;;;;;;4256766;33;20124;-68
2022/07/18 08:10:44;;;;;;;13.85;6.45;;;;;;;;;;4253234;33;20116;-68
2022/07/18 08:13:11;;;;;;;17.45;6.12;;;;;;;;;;4253840;33;20125;-69
2022/07/18 08:15:38;;;;;;;11.23;6.28;;;;;;;;;;4254205;33;20186;-69
2022/07/18 08:18:04;;;;;;;8.32;5.15;;;;;;;;;;4261308;33;20191;-68
2022/07/18 08:20:31;;;;;;;11.38;6.15;;;;;;;;;;4261733;33;20521;-68
2022/07/18 08:22:57;;;;;;;10.43;6.07;;;;;;;;;;4261076;33;20218;-68
2022/07/18 08:25:25;;;;;;;7.53;5.65;;;;;;;;;;4261699;33;20104;-68
2022/07/18 08:27:51;;;;;;;7.10;5.05;;;;;;;;;;4261655;33;20097;-68
2022/07/18 08:30:17;;;;;;;8.85;5.55;;;;;;;;;;4261593;33;20144;-69
2022/07/18 08:32:43;;;;;;;13.43;6.12;;;;;;;;;;4261383;33;20191;-68
2022/07/18 08:35:09;;;;;;;8.25;6.20;;;;;;;;;;4261617;33;20124;-66
2022/07/18 08:37:35;;;;;;;9.88;5.43;;;;;;;;;;4261647;33;20099;-65
2022/07/18 08:40:02;;;;;;;10.02;4.75;;;;;;;;;;4259901;33;20100;-68
2022/07/18 08:42:28;;;;;;;5.85;4.28;;;;;;;;;;4236948;33;20214;-67
2022/07/18 08:44:55;;;;;;;4.25;2.90;;;;;;;;;;4224953;33;20101;-69
2022/07/18 08:47:21;;;;;;;5.15;3.60;;;;;;;;;;4261503;33;20120;-69
2022/07/18 08:49:48;;;;;;;8.07;3.35;;;;;;;;;;4261495;33;20108;-69
2022/07/18 08:52:19;;;;;;;4.78;4.20;;;;;;;;;;4259979;33;20105;-69
2022/07/18 08:54:48;;;;;;;1.55;1.45;;;;;;;;;;4248286;33;20132;-68
2022/07/18 08:57:15;;;;;;;4.37;2.53;;;;;;;;;;4261401;33;20126;-68
2022/07/18 08:59:41;;;;;;;7.20;3.37;;;;;;;;;;4248195;33;20112;-68
2022/07/18 09:02:08;;;;;;;4.18;3.03;;;;;;;;;;4248464;33;20124;-68
2022/07/18 09:04:33;;;;;;;3.78;1.90;;;;;;;;;;4261336;33;20199;-67
2022/07/18 09:06:59;;;;;;;3.00;2.08;;;;;;;;;;4261286;33;20532;-67
2022/07/18 09:09:25;;;;;;;12.55;3.62;;;;;;;;;;4248100;33;20472;-67
2022/07/18 09:12:21;;;;;;;2.47;2.22;;;;;;;;;;4261213;33;20116;-66
2022/07/18 09:14:47;;;;;;;2.22;2.03;;;;;;;;;;4245952;33;20120;-70
2022/07/18 09:17:15;;;;;;;4.30;2.65;;;;;;;;;;4261191;33;20223;-70
2022/07/18 09:20:03;;;;;;;5.60;3.95;;;;;;;;;;4261240;33;20519;-70
2022/07/18 09:22:32;;;;;;;3.67;2.53;;;;;;;;;;4235839;33;20215;-70
2022/07/18 09:25:21;;;;;;;10.98;3.65;;;;;;;;;;4261649;33;20088;-72
2022/07/18 09:27:49;;;;;;;3.78;2.97;;;;;;;;;;4261181;33;20206;-69
2022/07/18 09:30:24;;;;;;;3.15;1.77;;;;;;;;;;4261051;33;20203;-71
2022/07/18 09:33:02;;;;;;;6.28;4.12;;;;;;;;;;4247887;33;20127;-70
2022/07/18 09:35:30;;;;;;;8.40;2.75;;;;;;;;;;4261125;33;20117;-71
2022/07/18 09:38:10;;;;;;;4.50;2.95;;;;;;;;;;4261125;33;20147;-70
2022/07/18 09:40:41;;;;;;;1.98;1.75;;;;;;;;;;4236426;33;20120;-70
2022/07/18 09:43:09;;;;;;;2.00;1.87;;;;;;;;;;4260869;33;20111;-70
2022/07/18 09:45:47;;;;;;;9.82;3.03;;;;;;;;;;4236018;33;20470;-70
2022/07/18 09:48:21;;;;;;;1.40;1.30;;;;;;;;;;4260890;33;20194;-67
2022/07/18 09:50:51;;;;;;;2.05;1.60;;;;;;;;;;4260882;33;20134;-67
2022/07/18 09:53:26;;;;;;;1.70;1.60;;;;;;;;;;4260971;33;20215;-67
2022/07/18 09:55:57;;;;;;;3.33;3.03;;;;;;;;;;4259595;33;20104;-67
2022/07/18 09:58:25;;;;;;;1.23;1.17;;;;;;;;;;4260710;33;20188;-66
2022/07/18 10:00:54;;;;;;;1.23;1.20;;;;;;;;;;4260804;33;20108;-66
2022/07/18 10:03:20;;;;;;;1.08;1.08;;;;;;;;;;4259636;33;20112;-66
2022/07/18 10:05:48;;;;;;;2.25;1.73;;;;;;;;;;4260727;33;20103;-66
2022/07/18 10:08:16;;;;;;;8.27;3.90;;;;;;;;;;4260604;33;20562;-66
2022/07/18 10:10:44;;;;;;;3.33;2.00;;;;;;;;;;4260632;33;20124;-65
2022/07/18 10:13:11;;;;;;;2.00;1.85;;;;;;;;;;4260837;33;20112;-63
2022/07/18 10:15:39;;;;;;;10.40;4.15;;;;;;;;;;4247755;33;20280;-63
2022/07/18 10:18:10;;;;;;;3.97;1.67;;;;;;;;;;4260769;33;20100;-61
2022/07/18 10:20:45;;;;;;;3.80;1.73;;;;;;;;;;4223880;33;20140;-62
2022/07/18 10:23:18;;;;;;;1.30;1.20;;;;;;;;;;4247466;33;20127;-63
2022/07/18 10:26:03;;;;;;;1.67;1.58;;;;;;;;;;4224333;33;20096;-62
2022/07/18 10:28:29;;;;;;;4.90;2.35;;;;;;;;;;4247386;33;20503;-62
2022/07/18 10:31:12;;;;;;;1.50;1.40;;;;;;;;;;4260730;33;20103;-62
2022/07/18 10:33:47;;;;;;;3.37;3.08;;;;;;;;;;4260449;33;20198;-63
2022/07/18 10:36:16;;;;;;;3.00;2.67;;;;;;;;;;4247779;33;20508;-68
2022/07/18 10:39:12;;;;;;;2.95;1.92;;;;;;;;;;4260659;33;20115;-73
2022/07/18 10:41:40;;;;;;;;;;;;;;;;;;4260668;33;20114;-67
2022/07/18 10:44:30;;;;;;;1.73;1.62;;;;;;;;;;4260601;33;19979;-68
2022/07/18 10:47:17;;;;;;;2.17;1.95;;;;;;;;;;4259941;33;20122;-66
2022/07/18 10:49:49;;;;;;;1.10;1.10;;;;;;;;;;4260488;33;20626;-70
2022/07/18 10:52:33;;;;;;;1.08;1.02;;;;;;;;;;4260253;33;20257;-69
2022/07/18 10:55:02;;;;;;;3.55;2.40;;;;;;;;;;4260538;33;20111;-67
2022/07/18 10:57:33;;;;;;;3.10;1.98;;;;;;;;;;4260256;33;20128;-68
2022/07/18 11:00:08;;;;;;;9.32;2.62;;;;;;;;;;4260510;33;20203;-68
2022/07/18 11:02:44;;;;;;;1.92;1.83;;;;;;;;;;4260080;33;20548;-68
2022/07/18 11:05:25;;;;;;;3.17;2.78;;;;;;;;;;4260215;33;20207;-68
2022/07/18 11:08:02;;;;;;;1.55;1.30;;;;;;;;;;4260058;33;20099;-67
2022/07/18 11:13:31;;;;;;;5.37;4.80;;;;;;;;;;4235332;33;20203;-68
2022/07/18 11:16:06;;;;;;;3.00;2.70;;;;;;;;;;4260179;33;20100;-68
2022/07/18 11:18:44;;;;;;;2.53;2.33;;;;;;;;;;4260097;33;20195;-71
2022/07/18 11:21:17;;;;;;;1.77;1.67;;;;;;;;;;4259978;33;20202;-68
2022/07/18 11:23:46;;;;;;;1.95;1.77;;;;;;;;;;4247093;33;20473;-68
2022/07/18 11:26:20;;;;;;;2.72;2.30;;;;;;;;;;4259920;33;20092;-69
2022/07/18 11:28:48;;;;;;;1.45;1.37;;;;;;;;;;4260047;33;20107;-68
2022/07/18 11:31:15;;;;;;;1.85;1.75;;;;;;;;;;4259932;33;20503;-68
2022/07/18 11:33:50;;;;;;;2.00;1.80;;;;;;;;;;4259245;33;20117;-68
2022/07/18 11:36:21;;;;;;;11.20;2.22;;;;;;;;;;4259832;33;20183;-67
2022/07/18 11:38:54;;;;;;;2.08;1.90;;;;;;;;;;4259687;33;20199;-68
2022/07/18 11:41:21;;;;;;;1.30;1.30;;;;;;;;;;4246905;33;20479;-66
2022/07/18 11:43:48;;;;;;;7.15;3.90;;;;;;;;;;4259680;33;20444;-67
2022/07/18 11:46:15;;;;;;;5.90;3.85;;;;;;;;;;4260073;33;20115;-67
2022/07/18 11:48:46;;;;;;;5.18;1.95;;;;;;;;;;4260053;33;20115;-67
2022/07/18 11:51:13;;;;;;;2.58;2.22;;;;;;;;;;4259764;33;20096;-66
2022/07/18 11:53:46;;;;;;;2.45;1.80;;;;;;;;;;4259733;33;20516;-67
2022/07/18 11:56:13;;;;;;;2.80;2.50;;;;;;;;;;4259922;33;20128;-67
2022/07/18 11:58:40;;;;;;;2.15;1.95;;;;;;;;;;4260638;33;20132;-68
2022/07/18 12:01:07;;;;;;;4.53;2.30;;;;;;;;;;4225594;33;20448;-66
2022/07/18 12:03:47;;;;;;;1.70;1.60;;;;;;;;;;4248668;33;20100;-66
2022/07/18 12:06:16;;;;;;;3.58;3.28;;;;;;;;;;4261903;33;20121;-70
2022/07/18 12:08:51;;;;;;;8.85;2.92;;;;;;;;;;4261872;33;20511;-68
2022/07/18 12:11:25;;;;;;;2.53;2.33;;;;;;;;;;4261907;33;20114;-67
2022/07/18 12:14:14;;;;;;;3.80;3.23;;;;;;;;;;4261694;33;20136;-67
2022/07/18 12:16:42;;;;;;;3.72;3.15;;;;;;;;;;4243182;33;20132;-71
2022/07/18 12:19:12;;;;;;;2.87;2.55;;;;;;;;;;4261698;33;20136;-69
2022/07/18 12:21:56;;;;;;;2.85;2.55;;;;;;;;;;4248446;33;20188;-66
2022/07/18 12:24:31;;;;;;;5.78;2.97;;;;;;;;;;4261695;33;20210;-67
2022/07/18 12:27:20;;;;;;;3.12;2.83;;;;;;;;;;4261550;33;20117;-67
2022/07/18 12:30:19;;;;;;;3.08;2.70;;;;;;;;;;4254862;33;20206;-68
2022/07/18 12:32:51;;;;;;;6.20;2.60;;;;;;;;;;4261712;33;20113;-68
2022/07/18 12:35:20;;;;;;;3.95;2.28;;;;;;;;;;4261672;33;20101;-68
2022/07/18 12:38:15;;;;;;;3.30;2.80;;;;;;;;;;4261561;33;20096;-69
2022/07/18 12:40:41;;;;;;;6.75;3.92;;;;;;;;;;4261531;33;20218;-69
2022/07/18 12:43:11;;;;;;;3.17;2.65;;;;;;;;;;4261550;33;20581;-69
2022/07/18 12:45:37;;;;;;;3.85;3.37;;;;;;;;;;4261613;33;20080;-68
2022/07/18 12:48:05;;;;;;;1.40;1.30;;;;;;;;;;4261508;33;20492;-70
2022/07/18 12:50:31;;;;;;;2.72;1.85;;;;;;;;;;4261554;33;20584;-68
2022/07/18 12:52:58;;;;;;;5.18;4.10;;;;;;;;;;4261511;33;20206;-67
2022/07/18 12:55:25;;;;;;;2.92;2.62;;;;;;;;;;4261450;33;20553;-67
2022/07/18 12:57:51;;;;;;;2.65;2.20;;;;;;;;;;4261419;33;20137;-67
2022/07/18 13:00:17;;;;;;;5.80;3.37;;;;;;;;;;4261550;33;20135;-67
2022/07/18 13:02:43;;;;;;;14.07;4.90;;;;;;;;;;4261200;33;20112;-67
2022/07/18 13:05:09;;;;;;;1.20;1.10;;;;;;;;;;4261354;33;20211;-67
2022/07/18 13:07:36;;;;;;;3.58;2.78;;;;;;;;;;4261416;33;20120;-68
2022/07/18 13:10:02;;;;;;;5.12;4.35;;;;;;;;;;4261351;33;20116;-67
2022/07/18 13:12:28;;;;;;;5.82;5.00;;;;;;;;;;4261222;33;20532;-65
2022/07/18 13:14:54;;;;;;;6.10;4.75;;;;;;;;;;4236519;33;20195;-67
2022/07/18 13:17:20;;;;;;;5.50;5.00;;;;;;;;;;4261070;33;20142;-67
2022/07/18 13:19:47;;;;;;;9.02;5.12;;;;;;;;;;4261190;33;20127;-67
2022/07/18 13:22:13;;;;;;;5.20;4.55;;;;;;;;;;4261309;33;20171;-66
2022/07/18 13:24:39;;;;;;;6.93;4.47;;;;;;;;;;4261396;33;20108;-67
2022/07/18 13:27:05;;;;;;;20.27;4.80;;;;;;;;;;4260998;33;20572;-67
2022/07/18 13:29:32;;;;;;;13.25;5.28;;;;;;;;;;4261049;33;20528;-67
2022/07/18 13:31:58;;;;;;;16.95;5.07;;;;;;;;;;4261013;33;20116;-67
2022/07/18 13:34:24;;;;;;;13.35;4.68;;;;;;;;;;4261156;33;20136;-66
2022/07/18 13:36:51;;;;;;;5.43;4.37;;;;;;;;;;4260914;33;20544;-66
2022/07/18 13:39:18;;;;;;;7.72;4.85;;;;;;;;;;4261023;33;20195;-67
2022/07/18 13:41:44;;;;;;;7.32;4.68;;;;;;;;;;4260879;33;20139;-66
2022/07/18 13:44:11;;;;;;;5.57;4.78;;;;;;;;;;4247985;33;20207;-66
2022/07/18 13:46:37;;;;;;;7.10;5.53;;;;;;;;;;4260930;33;20524;-71
2022/07/18 13:49:03;;;;;;;6.82;4.95;;;;;;;;;;4260864;33;20447;-68
2022/07/18 13:51:29;;;;;;;6.93;5.00;;;;;;;;;;4260955;33;20135;-66
2022/07/18 13:53:55;;;;;;;7.70;5.37;;;;;;;;;;4260691;33;20128;-67
2022/07/18 13:56:21;;;;;;;13.13;5.40;;;;;;;;;;4260974;33;20147;-67
2022/07/18 13:58:47;;;;;;;9.70;4.82;;;;;;;;;;4260926;33;20108;-67
2022/07/18 14:01:13;;;;;;;10.20;4.15;;;;;;;;;;4247567;33;20116;-67
2022/07/18 14:03:39;;;;;;;5.95;4.75;;;;;;;;;;4260695;33;20136;-68
2022/07/18 14:06:05;;;;;;;6.72;4.18;;;;;;;;;;4260822;33;20142;-66
2022/07/18 14:08:31;;;;;;;4.40;3.95;;;;;;;;;;4260782;33;20523;-67
2022/07/18 14:10:57;;;;;;;5.53;4.78;;;;;;;;;;4260746;33;20128;-67
2022/07/18 14:13:23;;;;;;;7.43;4.57;;;;;;;;;;4260766;33;20204;-66
2022/07/18 14:15:49;;;;;;;11.05;4.62;;;;;;;;;;4260800;33;20144;-67
2022/07/18 14:18:15;;;;;;;5.90;4.82;;;;;;;;;;4260650;33;20198;-67
2022/07/18 14:20:41;;;;;;;10.90;6.22;;;;;;;;;;4259793;33;20104;-66
2022/07/18 14:23:07;;;;;;;7.00;4.82;;;;;;;;;;4260635;33;20107;-66
2022/07/18 14:25:33;;;;;;;11.93;6.78;;;;;;;;;;4260933;33;20109;-66
2022/07/18 14:27:59;;;;;;;9.80;5.32;;;;;;;;;;4260746;33;20122;-66
2022/07/18 14:30:25;;;;;;;9.98;4.87;;;;;;;;;;4260592;33;20484;-69
2022/07/18 14:32:51;;;;;;;6.50;4.90;;;;;;;;;;4260443;33;20132;-68
2022/07/18 14:35:17;;;;;;;10.23;5.43;;;;;;;;;;4260526;33;20472;-67
2022/07/18 14:37:43;;;;;;;12.13;5.82;;;;;;;;;;4260448;33;20123;-67
2022/07/18 14:40:10;;;;;;;2.00;1.80;;;;;;;;;;4260438;33;20511;-67
2022/07/18 14:42:36;;;;;;;1.87;1.75;;;;;;;;;;4260337;33;20128;-67
2022/07/18 14:45:02;;;;;;;9.55;5.32;;;;;;;;;;4260281;33;20215;-66
2022/07/18 14:47:31;;;;;;;6.20;5.22;;;;;;;;;;4260464;33;20136;-68
2022/07/18 14:49:57;;;;;;;14.15;5.32;;;;;;;;;;4260315;33;20206;-69
2022/07/18 14:52:23;;;;;;;18.55;5.70;;;;;;;;;;4260477;33;20548;-68
2022/07/18 14:54:49;;;;;;;5.47;3.22;;;;;;;;;;4260605;33;20124;-68
2022/07/18 14:57:16;;;;;;;21.75;6.65;;;;;;;;;;4259799;33;20131;-69
2022/07/18 14:59:42;;;;;;;9.40;5.35;;;;;;;;;;4252055;33;20096;-66
2022/07/18 15:02:08;;;;;;;10.50;5.90;;;;;;;;;;4260415;33;20105;-67
2022/07/18 15:04:35;;;;;;;11.55;5.85;;;;;;;;;;4260270;33;20103;-67
2022/07/18 15:07:02;;;;;;;12.23;4.82;;;;;;;;;;4260352;33;20104;-64
2022/07/18 15:09:28;;;;;;;3.60;2.97;;;;;;;;;;4260055;33;20527;-65
2022/07/18 15:11:54;;;;;;;7.30;3.72;;;;;;;;;;4260136;33;20124;-67
2022/07/18 15:14:20;;;;;;;7.30;3.80;;;;;;;;;;4259976;33;20603;-67
2022/07/18 15:16:46;;;;;;;3.97;3.28;;;;;;;;;;4260265;33;20139;-66